createdAt,value
2022-09-21T00:02:10.263Z,8.80
2022-09-21T00:04:40.279Z,9.38
2022-09-21T00:07:12.463Z,8.60
2022-09-21T00:09:42.027Z,8.35
2022-09-21T00:12:12.613Z,9.15
2022-09-21T00:14:42.184Z,9.15
2022-09-21T00:17:11.894Z,9.00
2022-09-21T00:19:41.495Z,8.85
2022-09-21T00:22:13.696Z,8.52
2022-09-21T00:24:43.254Z,7.75
2022-09-21T00:27:12.847Z,7.90
2022-09-21T00:29:42.425Z,8.77
2022-09-21T00:32:12.066Z,8.02
2022-09-21T00:34:41.669Z,8.02
2022-09-21T00:37:14.069Z,8.27
2022-09-21T00:39:43.669Z,8.88
2022-09-21T00:42:13.869Z,8.40
2022-09-21T00:44:43.843Z,8.02
2022-09-21T00:47:16.243Z,8.68
2022-09-21T00:49:49.547Z,8.65
2022-09-21T00:52:24.055Z,9.27
2022-09-21T00:54:56.419Z,10.00
2022-09-21T00:57:30.977Z,9.85
2022-09-21T01:00:02.847Z,10.00
2022-09-21T01:02:32.956Z,9.73
2022-09-21T01:05:02.504Z,9.68
2022-09-21T01:07:37.019Z,9.77
2022-09-21T01:10:10.105Z,9.77
2022-09-21T01:12:51.830Z,10.15
2022-09-21T01:15:32.460Z,9.18
2022-09-21T01:18:04.834Z,9.30
2022-09-21T01:21:15.729Z,9.65
2022-09-21T01:24:10.877Z,10.13
2022-09-21T01:26:55.338Z,10.18
2022-09-21T01:29:31.353Z,9.40
2022-09-21T01:32:05.381Z,9.70
2022-09-21T01:34:39.588Z,9.88
2022-09-21T01:39:40.279Z,10.10
2022-09-21T01:42:10.749Z,10.07
2022-09-21T01:44:43.532Z,10.05
2022-09-21T01:47:15.519Z,8.95
2022-09-21T01:49:48.293Z,9.32
2022-09-21T01:52:20.677Z,9.50
2022-09-21T01:54:52.373Z,9.07
2022-09-21T01:57:29.018Z,9.93
2022-09-21T02:00:02.763Z,10.18
2022-09-21T02:02:46.410Z,10.95
2022-09-21T02:05:16.750Z,9.63
2022-09-21T02:07:46.535Z,8.68
2022-09-21T02:10:20.605Z,10.15
2022-09-21T02:12:51.835Z,9.50
2022-09-21T02:15:27.824Z,9.45
2022-09-21T02:18:04.440Z,9.18
2022-09-21T02:20:35.564Z,9.23
2022-09-21T02:23:09.203Z,9.20
2022-09-21T02:25:45.094Z,9.13
2022-09-21T02:28:22.749Z,8.70
2022-09-21T02:31:00.576Z,9.52
2022-09-21T02:33:33.909Z,9.10
2022-09-21T02:36:08.805Z,9.70
2022-09-21T02:38:46.242Z,9.80
2022-09-21T02:41:19.949Z,9.80
2022-09-21T02:43:53.710Z,9.57
2022-09-21T02:46:29.478Z,10.48
2022-09-21T02:49:01.935Z,10.40
2022-09-21T02:51:33.870Z,11.70
2022-09-21T02:54:06.626Z,11.55
2022-09-21T02:56:36.377Z,11.80
2022-09-21T02:59:08.044Z,12.05
2022-09-21T03:01:42.584Z,12.30
2022-09-21T03:04:12.424Z,12.88
2022-09-21T03:06:42.001Z,12.23
2022-09-21T03:09:11.748Z,10.38
2022-09-21T03:11:43.247Z,10.50
2022-09-21T03:14:13.110Z,10.30
2022-09-21T03:16:45.280Z,9.95
2022-09-21T03:19:15.085Z,9.52
2022-09-21T03:21:45.033Z,9.20
2022-09-21T03:24:34.705Z,9.35
2022-09-21T03:27:04.288Z,8.43
2022-09-21T03:29:33.838Z,9.13
2022-09-21T03:32:06.666Z,10.68
2022-09-21T03:34:36.394Z,9.85
2022-09-21T03:37:06.871Z,10.23
2022-09-21T03:39:36.710Z,10.13
2022-09-21T03:42:09.227Z,10.23
2022-09-21T03:44:41.321Z,10.77
2022-09-21T03:47:13.477Z,11.18
2022-09-21T03:49:43.034Z,11.93
2022-09-21T03:52:12.625Z,12.80
2022-09-21T03:54:42.168Z,11.73
2022-09-21T03:57:11.746Z,11.88
2022-09-21T03:59:42.123Z,12.80
2022-09-21T04:02:14.304Z,12.20
2022-09-21T04:04:43.852Z,12.50
2022-09-21T04:07:15.199Z,12.70
2022-09-21T04:09:44.791Z,13.02
2022-09-21T04:12:14.403Z,12.95
2022-09-21T04:14:44.644Z,12.10
2022-09-21T04:17:16.783Z,13.15
2022-09-21T04:19:46.718Z,13.07
2022-09-21T04:22:16.308Z,13.15
2022-09-21T04:24:46.179Z,12.57
2022-09-21T04:27:15.735Z,12.32
2022-09-21T04:29:45.365Z,11.43
2022-09-21T04:32:17.508Z,12.32
2022-09-21T04:34:47.124Z,13.02
2022-09-21T04:37:16.713Z,12.68
2022-09-21T04:39:46.661Z,12.75
2022-09-21T04:42:16.277Z,11.70
2022-09-21T04:44:45.806Z,12.07
2022-09-21T04:47:18.127Z,12.43
2022-09-21T04:49:47.703Z,13.98
2022-09-21T04:52:19.234Z,12.43
2022-09-21T04:54:48.996Z,11.50
2022-09-21T04:57:18.708Z,10.85
2022-09-21T04:59:48.285Z,10.50
2022-09-21T05:02:20.481Z,11.80
2022-09-21T05:04:51.094Z,11.80
2022-09-21T05:07:20.885Z,10.98
2022-09-21T05:10:02.728Z,11.13
2022-09-21T05:12:32.509Z,11.40
2022-09-21T05:15:02.101Z,13.15
2022-09-21T05:17:34.285Z,11.23
2022-09-21T05:20:04.402Z,11.73
2022-09-21T05:22:33.978Z,10.15
2022-09-21T05:25:03.552Z,11.05
2022-09-21T05:27:33.146Z,10.80
2022-09-21T05:30:03.477Z,10.38
2022-09-21T05:32:43.404Z,9.52
2022-09-21T05:35:19.476Z,9.18
2022-09-21T05:37:53.437Z,9.63
2022-09-21T05:40:24.052Z,9.63
2022-09-21T05:42:54.442Z,10.45
2022-09-21T05:45:24.945Z,10.02
2022-09-21T05:48:09.349Z,11.05
2022-09-21T05:50:56.259Z,10.57
2022-09-21T05:53:35.538Z,16.13
2022-09-21T05:56:07.825Z,16.30
2022-09-21T05:58:43.081Z,17.38
2022-09-21T06:01:24.435Z,15.73
2022-09-21T06:03:57.346Z,13.50
2022-09-21T06:06:26.918Z,14.57
2022-09-21T06:08:56.628Z,14.55
2022-09-21T06:11:26.251Z,14.13
2022-09-21T06:13:55.793Z,14.07
2022-09-21T06:16:25.373Z,15.27
2022-09-21T06:18:57.548Z,15.30
2022-09-21T06:21:27.198Z,14.50
2022-09-21T06:23:56.809Z,12.88
2022-09-21T06:26:26.497Z,13.45
2022-09-21T06:28:56.158Z,13.82
2022-09-21T06:31:26.010Z,13.52
2022-09-21T06:33:58.433Z,13.95
2022-09-21T06:36:28.090Z,12.80
2022-09-21T06:38:58.132Z,11.73
2022-09-21T06:41:27.861Z,13.82
2022-09-21T06:43:58.625Z,13.75
2022-09-21T06:46:28.241Z,13.38
2022-09-21T06:49:00.651Z,13.38
2022-09-21T06:51:30.256Z,12.55
2022-09-21T06:54:01.309Z,10.20
2022-09-21T06:56:30.896Z,8.73
2022-09-21T06:59:00.773Z,9.27
2022-09-21T07:01:30.612Z,8.57
2022-09-21T07:04:02.967Z,8.25
2022-09-21T07:06:32.527Z,7.80
2022-09-21T07:11:52.438Z,7.25
2022-09-21T07:14:23.468Z,6.80
2022-09-21T07:16:53.051Z,6.07
2022-09-21T07:19:25.222Z,5.85
2022-09-21T07:21:56.236Z,5.82
2022-09-21T07:24:25.862Z,5.25
2022-09-21T07:26:55.432Z,5.30
2022-09-21T07:29:25.031Z,5.13
2022-09-21T07:31:54.775Z,4.60
2022-09-21T07:34:27.017Z,4.80
2022-09-21T07:36:56.815Z,4.60
2022-09-21T07:39:26.479Z,4.72
2022-09-21T07:41:56.075Z,4.22
2022-09-21T07:44:25.800Z,4.00
2022-09-21T07:46:55.616Z,3.80
2022-09-21T07:49:28.066Z,3.90
2022-09-21T07:52:02.919Z,4.20
2022-09-21T07:54:34.529Z,4.38
2022-09-21T07:57:16.601Z,4.25
2022-09-21T07:59:46.198Z,4.00
2022-09-21T08:02:15.981Z,4.03
2022-09-21T08:04:48.190Z,3.63
2022-09-21T08:07:17.784Z,3.65
2022-09-21T08:09:49.362Z,3.53
2022-09-21T08:12:20.721Z,4.00
2022-09-21T08:14:50.780Z,3.20
2022-09-21T08:17:20.437Z,3.80
2022-09-21T08:19:52.616Z,3.33
2022-09-21T08:22:26.143Z,3.38
2022-09-21T08:24:55.977Z,3.58
2022-09-21T08:27:25.621Z,3.38
2022-09-21T08:29:55.631Z,2.90
2022-09-21T08:32:49.216Z,3.20
2022-09-21T08:35:19.118Z,3.17
2022-09-21T08:37:51.049Z,2.90
2022-09-21T08:40:21.770Z,2.70
2022-09-21T08:42:58.304Z,2.42
2022-09-21T08:45:34.019Z,2.80
2022-09-21T08:48:05.468Z,2.75
2022-09-21T08:50:42.789Z,2.63
2022-09-21T08:53:16.875Z,2.72
2022-09-21T08:55:46.728Z,3.03
2022-09-21T08:58:24.348Z,2.45
2022-09-21T09:01:06.723Z,2.70
2022-09-21T09:03:57.606Z,2.83
2022-09-21T09:06:36.430Z,2.75
2022-09-21T09:09:22.474Z,2.83
2022-09-21T09:12:00.967Z,2.70
2022-09-21T09:14:45.304Z,2.38
2022-09-21T09:17:28.031Z,2.30
2022-09-21T09:20:02.238Z,2.60
2022-09-21T09:22:39.425Z,2.40
2022-09-21T09:25:20.137Z,1.85
2022-09-21T09:27:51.413Z,2.20
2022-09-21T09:30:23.189Z,2.05
2022-09-21T09:32:57.893Z,1.60
2022-09-21T09:35:30.111Z,1.88
2022-09-21T09:38:07.161Z,2.00
2022-09-21T09:40:48.731Z,2.20
2022-09-21T09:43:28.832Z,2.03
2022-09-21T09:46:09.637Z,1.77
2022-09-21T09:48:54.201Z,1.67
2022-09-21T09:51:24.144Z,1.98
2022-09-21T09:53:59.249Z,2.40
2022-09-21T09:56:29.358Z,2.50
2022-09-21T09:59:03.527Z,2.80
2022-09-21T10:01:43.429Z,2.33
2022-09-21T10:04:14.713Z,2.58
2022-09-21T10:06:46.842Z,2.20
2022-09-21T10:09:27.776Z,2.27
2022-09-21T10:11:59.742Z,2.05
2022-09-21T10:14:31.123Z,2.35
2022-09-21T10:17:04.661Z,2.20
2022-09-21T10:19:34.446Z,2.10
2022-09-21T10:22:05.180Z,2.00
2022-09-21T10:24:40.735Z,2.20
2022-09-21T10:27:14.818Z,2.05
2022-09-21T10:29:46.151Z,2.30
2022-09-21T10:32:25.020Z,2.50
2022-09-21T10:35:15.542Z,2.10
2022-09-21T10:37:48.363Z,2.30
2022-09-21T10:40:31.456Z,2.10
2022-09-21T10:43:02.030Z,1.90
2022-09-21T10:45:32.857Z,2.13
2022-09-21T10:48:10.764Z,2.33
2022-09-21T10:50:42.099Z,2.00
2022-09-21T10:53:19.226Z,2.20
2022-09-21T10:56:11.733Z,2.20
2022-09-21T10:59:13.889Z,2.03
2022-09-21T11:01:48.727Z,2.20
2022-09-21T11:04:24.899Z,1.90
2022-09-21T11:06:57.178Z,2.45
2022-09-21T11:09:30.532Z,1.83
2022-09-21T11:12:06.845Z,2.30
2022-09-21T11:14:46.621Z,2.30
2022-09-21T11:17:22.950Z,2.28
2022-09-21T11:19:55.500Z,2.20
2022-09-21T11:22:33.321Z,2.42
2022-09-21T11:25:11.117Z,2.30
2022-09-21T11:27:45.676Z,1.90
2022-09-21T11:30:17.124Z,2.22
2022-09-21T11:33:02.334Z,2.40
2022-09-21T11:35:49.678Z,2.22
2022-09-21T11:38:38.798Z,2.60
2022-09-21T11:41:35.864Z,2.35
2022-09-21T11:44:28.132Z,2.25
2022-09-21T11:47:02.883Z,2.38
2022-09-21T11:50:07.568Z,2.30
2022-09-21T11:52:53.281Z,2.45
2022-09-21T11:55:34.930Z,2.10
2022-09-21T11:58:10.208Z,2.60
2022-09-21T12:00:50.090Z,2.33
2022-09-21T12:03:54.659Z,2.22
2022-09-21T12:06:35.672Z,2.30
2022-09-21T12:09:38.176Z,2.38
2022-09-21T12:12:14.355Z,2.20
2022-09-21T12:14:47.979Z,2.50
2022-09-21T12:17:25.470Z,2.15
2022-09-21T12:20:06.817Z,2.40
2022-09-21T12:22:39.212Z,1.80
2022-09-21T12:25:17.041Z,1.95
2022-09-21T12:27:51.592Z,2.45
2022-09-21T12:30:23.164Z,2.05
2022-09-21T12:32:59.715Z,2.08
2022-09-21T12:35:35.966Z,2.15
2022-09-21T12:38:13.588Z,1.80
2022-09-21T12:40:48.092Z,2.10
2022-09-21T12:43:28.608Z,1.50
2022-09-21T12:46:01.145Z,3.08
2022-09-21T12:48:38.096Z,2.10
2022-09-21T12:51:15.630Z,2.15
2022-09-21T12:53:50.901Z,1.83
2022-09-21T12:56:29.680Z,2.58
2022-09-21T12:59:20.698Z,2.30
2022-09-21T13:01:57.366Z,2.65
2022-09-21T13:04:41.877Z,2.35
2022-09-21T13:09:57.166Z,2.22
2022-09-21T13:12:29.178Z,2.08
2022-09-21T13:15:04.182Z,2.42
2022-09-21T13:17:35.886Z,2.08
2022-09-21T13:20:10.322Z,2.60
2022-09-21T13:22:40.002Z,1.70
2022-09-21T13:25:18.942Z,1.98
2022-09-21T13:28:23.937Z,1.80
2022-09-21T13:31:43.854Z,2.08
2022-09-21T13:34:34.545Z,2.13
2022-09-21T13:37:36.925Z,2.03
2022-09-21T13:40:42.921Z,2.10
2022-09-21T13:43:48.179Z,1.60
2022-09-21T13:46:47.423Z,2.30
2022-09-21T13:49:21.811Z,1.65
2022-09-21T13:51:57.265Z,2.10
2022-09-21T13:54:30.931Z,1.83
2022-09-21T13:57:09.293Z,1.85
2022-09-21T13:59:43.691Z,2.28
2022-09-21T14:02:26.697Z,1.80
2022-09-21T14:04:56.473Z,1.95
2022-09-21T14:07:31.909Z,1.92
2022-09-21T14:10:03.110Z,1.40
2022-09-21T14:12:37.878Z,2.00
2022-09-21T14:15:37.786Z,1.90
2022-09-21T14:18:42.982Z,1.48
2022-09-21T14:21:22.488Z,1.60
2022-09-21T14:24:22.097Z,1.60
2022-09-21T14:27:01.278Z,1.27
2022-09-21T14:29:37.708Z,1.40
2022-09-21T14:32:17.316Z,1.40
2022-09-21T14:34:50.041Z,1.38
2022-09-21T14:37:30.328Z,1.38
2022-09-21T14:40:00.978Z,1.63
2022-09-21T14:42:31.928Z,1.77
2022-09-21T14:45:04.046Z,1.55
2022-09-21T14:47:48.839Z,1.42
2022-09-21T14:50:36.697Z,6.00
2022-09-21T14:53:41.907Z,1.92
2022-09-21T14:56:25.708Z,1.45
2022-09-21T14:59:12.534Z,37.17
2022-09-21T15:01:45.270Z,4.85
2022-09-21T15:04:33.288Z,4.68
2022-09-21T15:07:27.659Z,2.78
2022-09-21T15:10:37.022Z,1.70
2022-09-21T15:13:18.039Z,2.03
2022-09-21T15:15:54.166Z,1.90
2022-09-21T15:18:25.849Z,1.80
2022-09-21T15:21:04.139Z,1.70
2022-09-21T15:23:38.462Z,1.73
2022-09-21T15:26:12.029Z,1.67
2022-09-21T15:29:08.245Z,1.25
2022-09-21T15:31:39.266Z,1.73
2022-09-21T15:34:10.789Z,1.75
2022-09-21T15:36:44.154Z,1.50
2022-09-21T15:39:25.237Z,1.67
2022-09-21T15:42:09.100Z,1.25
2022-09-21T15:44:40.941Z,1.58
2022-09-21T15:47:13.173Z,1.67
2022-09-21T15:49:43.878Z,1.60
2022-09-21T15:52:24.148Z,1.45
2022-09-21T15:54:57.017Z,1.50
2022-09-21T15:57:36.811Z,1.38
2022-09-21T16:00:11.174Z,1.23
2022-09-21T16:02:42.053Z,1.60
2022-09-21T16:05:19.373Z,1.80
2022-09-21T16:07:52.164Z,1.67
2022-09-21T16:10:40.752Z,1.55
2022-09-21T16:13:28.223Z,1.40
2022-09-21T16:16:09.782Z,1.70
2022-09-21T16:18:49.243Z,1.40
2022-09-21T16:21:32.324Z,1.88
2022-09-21T16:24:13.699Z,1.10
2022-09-21T16:26:44.451Z,1.42
2022-09-21T16:29:23.677Z,1.60
2022-09-21T16:31:53.513Z,1.67
2022-09-21T16:34:39.240Z,1.50
2022-09-21T16:37:25.991Z,1.33
2022-09-21T16:40:00.690Z,1.50
2022-09-21T16:42:33.214Z,1.60
2022-09-21T16:45:03.233Z,1.73
2022-09-21T16:47:33.157Z,1.95
2022-09-21T16:50:03.038Z,1.95
2022-09-21T16:52:33.283Z,2.97
2022-09-21T16:55:06.251Z,1.88
2022-09-21T16:57:35.898Z,2.33
2022-09-21T17:00:09.509Z,2.50
2022-09-21T17:02:45.227Z,2.85
2022-09-21T17:05:18.119Z,2.70
2022-09-21T17:07:52.745Z,2.47
2022-09-21T17:10:27.284Z,2.38
2022-09-21T17:12:56.926Z,2.88
2022-09-21T17:15:28.184Z,2.30
2022-09-21T17:17:58.230Z,12.50
2022-09-21T17:20:33.968Z,3.83
2022-09-21T17:23:04.327Z,4.60
2022-09-21T17:25:38.247Z,4.13
2022-09-21T17:28:16.879Z,3.70
2022-09-21T17:30:46.535Z,3.10
2022-09-21T17:33:21.494Z,3.28
2022-09-21T17:35:52.380Z,2.70
2022-09-21T17:38:22.161Z,2.58
2022-09-21T17:40:55.224Z,2.50
2022-09-21T17:43:37.301Z,2.60
2022-09-21T17:46:10.984Z,2.75
2022-09-21T17:48:41.452Z,2.80
2022-09-21T17:51:32.887Z,3.20
2022-09-21T17:54:00.669Z,3.40
2022-09-21T17:56:42.057Z,3.58
2022-09-21T17:59:25.247Z,3.80
2022-09-21T18:01:59.397Z,3.53
2022-09-21T18:04:34.845Z,3.60
2022-09-21T18:07:05.516Z,3.67
2022-09-21T18:09:35.790Z,3.85
2022-09-21T18:12:36.262Z,3.40
2022-09-21T18:15:13.566Z,4.40
2022-09-21T18:17:53.598Z,3.97
2022-09-21T18:20:32.208Z,3.80
2022-09-21T18:23:09.356Z,4.25
2022-09-21T18:25:47.772Z,4.20
2022-09-21T18:28:24.472Z,4.53
2022-09-21T18:31:01.245Z,4.35
2022-09-21T18:33:38.466Z,4.00
2022-09-21T18:36:17.095Z,3.72
2022-09-21T18:38:53.050Z,4.93
2022-09-21T18:41:31.624Z,4.80
2022-09-21T18:44:16.189Z,4.97
2022-09-21T18:46:55.098Z,11.20
2022-09-21T18:49:46.211Z,19.83
2022-09-21T18:52:24.724Z,26.10
2022-09-21T18:54:54.602Z,7.30
2022-09-21T18:57:24.986Z,5.97
2022-09-21T18:59:57.934Z,5.90
2022-09-21T19:02:28.474Z,6.03
2022-09-21T19:04:59.658Z,8.48
2022-09-21T19:07:40.095Z,6.95
2022-09-21T19:10:17.268Z,14.25
2022-09-21T19:13:00.188Z,13.68
2022-09-21T19:15:59.735Z,8.82
2022-09-21T19:18:34.794Z,7.07
2022-09-21T19:21:15.579Z,7.18
2022-09-21T19:24:03.242Z,7.90
2022-09-21T19:26:36.343Z,6.80
2022-09-21T19:29:21.681Z,6.95
2022-09-21T19:31:54.467Z,5.90
2022-09-21T19:34:24.366Z,5.25
2022-09-21T19:36:57.186Z,5.63
2022-09-21T19:39:27.576Z,4.80
2022-09-21T19:42:06.537Z,5.10
2022-09-21T19:44:44.860Z,5.20
2022-09-21T19:47:25.633Z,5.70
2022-09-21T19:49:57.129Z,5.55
2022-09-21T19:52:32.510Z,4.88
2022-09-21T19:55:15.145Z,4.75
2022-09-21T19:58:09.752Z,4.43
2022-09-21T20:00:40.053Z,4.65
2022-09-21T20:03:16.876Z,4.40
2022-09-21T20:05:54.942Z,4.57
2022-09-21T20:08:30.890Z,4.30
2022-09-21T20:11:13.355Z,4.30
2022-09-21T20:14:07.233Z,4.38
2022-09-21T20:16:43.398Z,4.38
2022-09-21T20:19:24.114Z,4.30
2022-09-21T20:21:58.848Z,4.15
2022-09-21T20:24:34.724Z,4.10
2022-09-21T20:27:05.970Z,4.13
2022-09-21T20:29:35.888Z,4.35
2022-09-21T20:32:05.470Z,4.68
2022-09-21T20:34:41.037Z,3.80
2022-09-21T20:37:14.313Z,4.30
2022-09-21T20:39:43.978Z,4.80
2022-09-21T20:42:18.691Z,4.57
2022-09-21T20:44:48.314Z,4.20
2022-09-21T20:47:18.961Z,4.75
2022-09-21T20:49:51.918Z,4.43
2022-09-21T20:52:21.503Z,4.30
2022-09-21T20:54:51.256Z,4.30
2022-09-21T20:57:21.337Z,4.40
2022-09-21T20:59:50.972Z,4.65
2022-09-21T21:02:20.560Z,4.70
2022-09-21T21:04:52.783Z,4.53
2022-09-21T21:07:23.578Z,4.50
2022-09-21T21:09:55.119Z,3.85
2022-09-21T21:12:24.848Z,3.95
2022-09-21T21:14:54.656Z,4.28
2022-09-21T21:17:24.296Z,4.00
2022-09-21T21:19:56.501Z,4.07
2022-09-21T21:22:26.229Z,4.05
2022-09-21T21:24:55.834Z,4.00
2022-09-21T21:27:26.682Z,3.70
2022-09-21T21:29:58.517Z,4.10
2022-09-21T21:32:32.355Z,3.97
2022-09-21T21:35:04.940Z,3.80
2022-09-21T21:37:34.532Z,4.20
2022-09-21T21:40:04.761Z,3.90
2022-09-21T21:42:34.541Z,4.13
2022-09-21T21:45:04.209Z,4.72
2022-09-21T21:47:41.465Z,4.95
2022-09-21T21:50:14.203Z,4.80
2022-09-21T21:52:45.254Z,5.00
2022-09-21T21:55:15.279Z,4.60
2022-09-21T21:57:44.963Z,4.22
2022-09-21T22:00:16.134Z,4.63
2022-09-21T22:02:46.409Z,4.40
2022-09-21T22:05:18.792Z,4.22
2022-09-21T22:07:48.992Z,4.28
2022-09-21T22:10:18.800Z,4.32
2022-09-21T22:12:48.354Z,4.20
2022-09-21T22:15:18.904Z,4.55
2022-09-21T22:17:48.746Z,4.65
2022-09-21T22:20:22.758Z,4.03
2022-09-21T22:22:52.329Z,4.40
2022-09-21T22:25:21.958Z,3.88
2022-09-21T22:27:51.565Z,4.10
2022-09-21T22:30:21.180Z,3.85
2022-09-21T22:32:51.618Z,3.80
2022-09-21T22:35:23.802Z,3.58
2022-09-21T22:37:54.594Z,3.83
2022-09-21T22:40:24.643Z,3.53
2022-09-21T22:42:54.311Z,3.63
2022-09-21T22:45:26.219Z,3.45
2022-09-21T22:47:55.854Z,3.50
2022-09-21T22:50:28.099Z,3.33
2022-09-21T22:52:57.652Z,3.47
2022-09-21T22:55:27.331Z,3.10
2022-09-21T22:57:56.895Z,3.28
2022-09-21T23:00:26.490Z,3.28
2022-09-21T23:02:56.949Z,3.38
2022-09-21T23:05:29.693Z,3.45
2022-09-21T23:07:59.517Z,3.53
2022-09-21T23:10:29.682Z,3.13
2022-09-21T23:12:59.290Z,3.05
2022-09-21T23:15:28.906Z,3.10
2022-09-21T23:17:58.517Z,3.17
2022-09-21T23:20:30.836Z,3.53
2022-09-21T23:23:00.483Z,3.30
2022-09-21T23:25:30.119Z,3.03
2022-09-21T23:28:00.563Z,3.03
2022-09-21T23:30:30.191Z,2.90
2022-09-21T23:32:59.846Z,3.30
2022-09-21T23:35:32.183Z,3.05
2022-09-21T23:38:05.177Z,3.33
2022-09-21T23:40:35.205Z,2.90
2022-09-21T23:43:04.968Z,2.92
2022-09-21T23:45:34.566Z,3.15
2022-09-21T23:48:04.695Z,2.78
2022-09-21T23:50:36.928Z,2.90
2022-09-21T23:53:06.560Z,3.13
2022-09-21T23:55:36.118Z,3.28
2022-09-21T23:58:05.733Z,3.30
